sensor_id;sensor_type;location;lat;lon;timestamp;pressure;altitude;pressure_sealevel;temperature;humidity
70521;BME280;58442;52.716;23.560;2023-02-28T00:00:20;102866.36;;;0.02;64.41
70521;BME280;58442;52.716;23.560;2023-02-28T00:02:26;102860.85;;;-0.04;64.50
70521;BME280;58442;52.716;23.560;2023-02-28T00:04:28;102866.86;;;-0.08;64.50
70521;BME280;58442;52.716;23.560;2023-02-28T00:06:32;102868.14;;;-0.11;64.59
70521;BME280;58442;52.716;23.560;2023-02-28T00:08:33;102866.93;;;-0.15;64.61
70521;BME280;58442;52.716;23.560;2023-02-28T00:10:35;102869.25;;;-0.18;64.69
70521;BME280;58442;52.716;23.560;2023-02-28T00:12:37;102865.15;;;-0.21;64.83
70521;BME280;58442;52.716;23.560;2023-02-28T00:14:47;102871.34;;;-0.20;64.83
70521;BME280;58442;52.716;23.560;2023-02-28T00:16:48;102873.39;;;-0.22;64.90
70521;BME280;58442;52.716;23.560;2023-02-28T00:18:51;102873.03;;;-0.26;65.02
70521;BME280;58442;52.716;23.560;2023-02-28T00:20:52;102875.09;;;-0.28;65.14
70521;BME280;58442;52.716;23.560;2023-02-28T00:23:02;102870.55;;;-0.28;65.16
70521;BME280;58442;52.716;23.560;2023-02-28T00:25:04;102871.83;;;-0.30;65.27
70521;BME280;58442;52.716;23.560;2023-02-28T00:27:07;102881.12;;;-0.33;65.39
70521;BME280;58442;52.716;23.560;2023-02-28T00:29:09;102871.47;;;-0.34;65.45
70521;BME280;58442;52.716;23.560;2023-02-28T00:31:17;102870.86;;;-0.36;65.63
70521;BME280;58442;52.716;23.560;2023-02-28T00:33:18;102881.34;;;-0.34;65.58
70521;BME280;58442;52.716;23.560;2023-02-28T00:35:20;102868.57;;;-0.32;65.56
70521;BME280;58442;52.716;23.560;2023-02-28T00:37:21;102875.54;;;-0.31;65.55
70521;BME280;58442;52.716;23.560;2023-02-28T00:39:36;102868.12;;;-0.29;65.52
70521;BME280;58442;52.716;23.560;2023-02-28T00:41:38;102874.73;;;-0.32;65.61
70521;BME280;58442;52.716;23.560;2023-02-28T00:43:39;102874.96;;;-0.33;65.66
70521;BME280;58442;52.716;23.560;2023-02-28T00:45:41;102877.25;;;-0.37;65.73
70521;BME280;58442;52.716;23.560;2023-02-28T00:47:47;102890.82;;;-0.38;65.86
70521;BME280;58442;52.716;23.560;2023-02-28T00:49:50;102881.41;;;-0.41;65.94
70521;BME280;58442;52.716;23.560;2023-02-28T00:51:53;102883.46;;;-0.43;66.03
70521;BME280;58442;52.716;23.560;2023-02-28T00:53:54;102886.13;;;-0.43;66.06
70521;BME280;58442;52.716;23.560;2023-02-28T00:56:03;102886.94;;;-0.42;66.11
70521;BME280;58442;52.716;23.560;2023-02-28T00:58:04;102890.66;;;-0.43;66.17
70521;BME280;58442;52.716;23.560;2023-02-28T01:00:07;102887.17;;;-0.44;66.25
70521;BME280;58442;52.716;23.560;2023-02-28T01:02:09;102886.35;;;-0.44;66.28
70521;BME280;58442;52.716;23.560;2023-02-28T01:04:17;102887.98;;;-0.43;66.34
70521;BME280;58442;52.716;23.560;2023-02-28T01:06:19;102891.87;;;-0.39;66.29
70521;BME280;58442;52.716;23.560;2023-02-28T01:08:20;102900.48;;;-0.37;66.19
70521;BME280;58442;52.716;23.560;2023-02-28T01:10:22;102896.16;;;-0.38;66.20
70521;BME280;58442;52.716;23.560;2023-02-28T01:12:33;102892.91;;;-0.40;66.30
70521;BME280;58442;52.716;23.560;2023-02-28T01:14:34;102896.58;;;-0.41;66.39
70521;BME280;58442;52.716;23.560;2023-02-28T01:16:36;102907.27;;;-0.41;66.43
70521;BME280;58442;52.716;23.560;2023-02-28T01:18:38;102908.94;;;-0.40;66.43
70521;BME280;58442;52.716;23.560;2023-02-28T01:20:48;102897.79;;;-0.37;66.37
70521;BME280;58442;52.716;23.560;2023-02-28T01:22:50;102901.87;;;-0.35;66.24
70521;BME280;58442;52.716;23.560;2023-02-28T01:24:51;102903.30;;;-0.32;66.11
70521;BME280;58442;52.716;23.560;2023-02-28T01:26:53;102901.80;;;-0.28;66.01
70521;BME280;58442;52.716;23.560;2023-02-28T01:29:03;102901.61;;;-0.26;65.96
70521;BME280;58442;52.716;23.560;2023-02-28T01:31:04;102910.44;;;-0.26;65.97
70521;BME280;58442;52.716;23.560;2023-02-28T01:33:06;102906.73;;;-0.25;65.96
70521;BME280;58442;52.716;23.560;2023-02-28T01:35:08;102902.20;;;-0.24;65.97
70521;BME280;58442;52.716;23.560;2023-02-28T01:37:18;102904.87;;;-0.24;65.99
70521;BME280;58442;52.716;23.560;2023-02-28T01:39:19;102899.76;;;-0.26;65.96
70521;BME280;58442;52.716;23.560;2023-02-28T01:41:25;102898.70;;;-0.25;66.14
70521;BME280;58442;52.716;23.560;2023-02-28T01:43:29;102896.85;;;-0.24;66.19
70521;BME280;58442;52.716;23.560;2023-02-28T01:45:35;102903.02;;;-0.24;66.24
70521;BME280;58442;52.716;23.560;2023-02-28T01:47:40;102899.29;;;-0.23;66.31
70521;BME280;58442;52.716;23.560;2023-02-28T01:49:43;102899.88;;;-0.21;66.30
70521;BME280;58442;52.716;23.560;2023-02-28T01:51:48;102901.30;;;-0.18;66.29
70521;BME280;58442;52.716;23.560;2023-02-28T01:53:58;102904.81;;;-0.18;66.33
70521;BME280;58442;52.716;23.560;2023-02-28T01:56:04;102897.01;;;-0.19;66.46
70521;BME280;58442;52.716;23.560;2023-02-28T01:58:07;102892.71;;;-0.20;66.57
70521;BME280;58442;52.716;23.560;2023-02-28T02:00:13;102898.06;;;-0.20;66.58
70521;BME280;58442;52.716;23.560;2023-02-28T02:02:18;102898.87;;;-0.20;66.65
70521;BME280;58442;52.716;23.560;2023-02-28T02:04:22;102884.89;;;-0.22;66.73
70521;BME280;58442;52.716;23.560;2023-02-28T02:06:26;102892.71;;;-0.20;66.74
70521;BME280;58442;52.716;23.560;2023-02-28T02:08:29;102891.67;;;-0.19;66.69
70521;BME280;58442;52.716;23.560;2023-02-28T02:10:39;102896.20;;;-0.20;66.69
70521;BME280;58442;52.716;23.560;2023-02-28T02:15:22;102896.79;;;-0.18;66.67
70521;BME280;58442;52.716;23.560;2023-02-28T02:17:50;102897.84;;;-0.19;66.72
70521;BME280;58442;52.716;23.560;2023-02-28T02:20:12;102895.38;;;-0.20;66.78
70521;BME280;58442;52.716;23.560;2023-02-28T02:36:33;102900.85;;;-0.15;66.88
70521;BME280;58442;52.716;23.560;2023-02-28T02:43:13;102897.96;;;-0.14;66.90
70521;BME280;58442;52.716;23.560;2023-02-28T02:45:21;102895.09;;;-0.12;66.92
70521;BME280;58442;52.716;23.560;2023-02-28T02:47:26;102895.90;;;-0.12;66.94
70521;BME280;58442;52.716;23.560;2023-02-28T02:49:33;102893.82;;;-0.10;66.89
70521;BME280;58442;52.716;23.560;2023-02-28T02:51:38;102892.77;;;-0.09;66.90
70521;BME280;58442;52.716;23.560;2023-02-28T02:53:56;102895.45;;;-0.09;66.94
70521;BME280;58442;52.716;23.560;2023-02-28T02:55:53;102894.41;;;-0.08;66.97
70521;BME280;58442;52.716;23.560;2023-02-28T02:57:59;102891.95;;;-0.09;67.01
70521;BME280;58442;52.716;23.560;2023-02-28T03:00:12;102899.16;;;-0.10;67.07
70521;BME280;58442;52.716;23.560;2023-02-28T03:02:17;102894.86;;;-0.11;67.10
70521;BME280;58442;52.716;23.560;2023-02-28T03:04:23;102892.19;;;-0.11;67.11
70521;BME280;58442;52.716;23.560;2023-02-28T03:06:25;102895.22;;;-0.07;67.13
70521;BME280;58442;52.716;23.560;2023-02-28T03:08:29;102890.10;;;-0.09;67.09
70521;BME280;58442;52.716;23.560;2023-02-28T03:10:35;102895.45;;;-0.09;67.15
70521;BME280;58442;52.716;23.560;2023-02-28T03:12:45;102895.45;;;-0.09;67.18
70521;BME280;58442;52.716;23.560;2023-02-28T03:21:40;102900.80;;;-0.09;67.21
70521;BME280;58442;52.716;23.560;2023-02-28T03:28:33;102899.61;;;-0.13;67.34
70521;BME280;58442;52.716;23.560;2023-02-28T03:30:47;102905.77;;;-0.12;67.40
70521;BME280;58442;52.716;23.560;2023-02-28T03:33:05;102907.63;;;-0.13;67.41
70521;BME280;58442;52.716;23.560;2023-02-28T03:35:14;102904.97;;;-0.13;67.42
70521;BME280;58442;52.716;23.560;2023-02-28T03:37:25;102909.27;;;-0.12;67.39
70521;BME280;58442;52.716;23.560;2023-02-28T03:39:35;102915.20;;;-0.10;67.38
70521;BME280;58442;52.716;23.560;2023-02-28T03:41:49;102912.52;;;-0.10;67.38
70521;BME280;58442;52.716;23.560;2023-02-28T03:44:06;102913.58;;;-0.11;67.39
70521;BME280;58442;52.716;23.560;2023-02-28T03:46:13;102913.11;;;-0.08;67.38
70521;BME280;58442;52.716;23.560;2023-02-28T03:48:25;102920.31;;;-0.08;67.40
70521;BME280;58442;52.716;23.560;2023-02-28T03:52:51;102915.59;;;-0.06;67.38
70521;BME280;58442;52.716;23.560;2023-02-28T03:54:52;102918.03;;;-0.05;67.29
70521;BME280;58442;52.716;23.560;2023-02-28T03:59:30;102923.79;;;-0.08;67.34
70521;BME280;58442;52.716;23.560;2023-02-28T04:01:48;102926.70;;;-0.09;67.43
70521;BME280;58442;52.716;23.560;2023-02-28T04:03:46;102926.70;;;-0.09;67.43
70521;BME280;58442;52.716;23.560;2023-02-28T04:05:52;102926.70;;;-0.09;67.46
70521;BME280;58442;52.716;23.560;2023-02-28T04:08:08;102931.01;;;-0.08;67.46
70521;BME280;58442;52.716;23.560;2023-02-28T04:10:12;102930.81;;;-0.07;67.43
70521;BME280;58442;52.716;23.560;2023-02-28T04:12:14;102938.83;;;-0.07;67.39
70521;BME280;58442;52.716;23.560;2023-02-28T04:14:15;102932.86;;;-0.09;67.29
70521;BME280;58442;52.716;23.560;2023-02-28T04:16:17;102936.57;;;-0.10;67.31
70521;BME280;58442;52.716;23.560;2023-02-28T04:18:26;102940.88;;;-0.09;67.27
70521;BME280;58442;52.716;23.560;2023-02-28T04:20:28;102942.73;;;-0.09;67.22
70521;BME280;58442;52.716;23.560;2023-02-28T04:22:29;102939.48;;;-0.11;67.20
70521;BME280;58442;52.716;23.560;2023-02-28T04:24:30;102936.80;;;-0.11;67.23
70521;BME280;58442;52.716;23.560;2023-02-28T04:26:44;102938.66;;;-0.12;67.15
70521;BME280;58442;52.716;23.560;2023-02-28T04:28:45;102947.33;;;-0.16;67.17
70521;BME280;58442;52.716;23.560;2023-02-28T04:30:47;102941.39;;;-0.18;67.22
70521;BME280;58442;52.716;23.560;2023-02-28T04:32:48;102943.25;;;-0.19;67.23
70521;BME280;58442;52.716;23.560;2023-02-28T04:34:57;102946.96;;;-0.20;67.25
70521;BME280;58442;52.716;23.560;2023-02-28T04:36:58;102941.63;;;-0.20;67.27
70521;BME280;58442;52.716;23.560;2023-02-28T04:39:01;102940.58;;;-0.19;67.29
70521;BME280;58442;52.716;23.560;2023-02-28T04:41:03;102935.83;;;-0.17;67.28
70521;BME280;58442;52.716;23.560;2023-02-28T04:43:12;102935.83;;;-0.17;67.28
70521;BME280;58442;52.716;23.560;2023-02-28T04:45:13;102934.55;;;-0.14;67.23
70521;BME280;58442;52.716;23.560;2023-02-28T04:47:14;102928.20;;;-0.13;67.18
70521;BME280;58442;52.716;23.560;2023-02-28T04:49:16;102926.54;;;-0.14;67.17
70521;BME280;58442;52.716;23.560;2023-02-28T04:51:27;102933.16;;;-0.17;67.23
70521;BME280;58442;52.716;23.560;2023-02-28T04:53:29;102930.95;;;-0.20;67.31
70521;BME280;58442;52.716;23.560;2023-02-28T04:55:30;102928.47;;;-0.21;67.32
70521;BME280;58442;52.716;23.560;2023-02-28T04:57:31;102934.03;;;-0.23;67.33
70521;BME280;58442;52.716;23.560;2023-02-28T04:59:42;102940.19;;;-0.22;67.33
70521;BME280;58442;52.716;23.560;2023-02-28T05:01:47;102937.16;;;-0.26;67.34
70521;BME280;58442;52.716;23.560;2023-02-28T05:03:50;102942.51;;;-0.26;67.35
70521;BME280;58442;52.716;23.560;2023-02-28T05:05:51;102941.08;;;-0.29;67.40
70521;BME280;58442;52.716;23.560;2023-02-28T05:07:57;102947.84;;;-0.26;67.36
70521;BME280;58442;52.716;23.560;2023-02-28T05:09:58;102942.93;;;-0.29;67.27
70521;BME280;58442;52.716;23.560;2023-02-28T05:12:00;102946.05;;;-0.32;67.38
70521;BME280;58442;52.716;23.560;2023-02-28T05:14:03;102940.13;;;-0.34;67.42
70521;BME280;58442;52.716;23.560;2023-02-28T05:16:12;102942.79;;;-0.34;67.43
70521;BME280;58442;52.716;23.560;2023-02-28T05:18:13;102935.59;;;-0.34;67.38
70521;BME280;58442;52.716;23.560;2023-02-28T05:20:15;102935.59;;;-0.34;67.38
70521;BME280;58442;52.716;23.560;2023-02-28T05:22:16;102936.40;;;-0.33;67.39
70521;BME280;58442;52.716;23.560;2023-02-28T05:24:27;102942.56;;;-0.33;67.37
70521;BME280;58442;52.716;23.560;2023-02-28T05:26:29;102940.13;;;-0.34;67.37
70521;BME280;58442;52.716;23.560;2023-02-28T05:28:31;102940.53;;;-0.37;67.45
70521;BME280;58442;52.716;23.560;2023-02-28T05:30:33;102947.74;;;-0.38;67.46
70521;BME280;58442;52.716;23.560;2023-02-28T05:32:42;102947.51;;;-0.36;67.48
70521;BME280;58442;52.716;23.560;2023-02-28T05:34:44;102951.61;;;-0.34;67.38
70521;BME280;58442;52.716;23.560;2023-02-28T05:36:45;102948.73;;;-0.32;67.34
70521;BME280;58442;52.716;23.560;2023-02-28T05:38:47;102948.73;;;-0.32;67.31
70521;BME280;58442;52.716;23.560;2023-02-28T05:40:57;102955.70;;;-0.31;67.33
70521;BME280;58442;52.716;23.560;2023-02-28T05:42:59;102953.61;;;-0.29;67.35
70521;BME280;58442;52.716;23.560;2023-02-28T05:45:00;102952.80;;;-0.30;67.39
70521;BME280;58442;52.716;23.560;2023-02-28T05:47:02;102956.90;;;-0.27;67.38
70521;BME280;58442;52.716;23.560;2023-02-28T05:49:12;102960.17;;;-0.25;67.41
70521;BME280;58442;52.716;23.560;2023-02-28T05:51:14;102956.45;;;-0.24;67.40
70521;BME280;58442;52.716;23.560;2023-02-28T05:53:16;102959.72;;;-0.22;67.39
70521;BME280;58442;52.716;23.560;2023-02-28T05:55:17;102955.41;;;-0.23;67.36
70521;BME280;58442;52.716;23.560;2023-02-28T05:57:27;102948.66;;;-0.25;67.43
70521;BME280;58442;52.716;23.560;2023-02-28T05:59:29;102953.19;;;-0.26;67.53
70521;BME280;58442;52.716;23.560;2023-02-28T06:01:39;102958.90;;;-0.22;67.51
70521;BME280;58442;52.716;23.560;2023-02-28T06:03:41;102959.51;;;-0.20;67.43
70521;BME280;58442;52.716;23.560;2023-02-28T06:05:42;102956.62;;;-0.19;67.44
70521;BME280;58442;52.716;23.560;2023-02-28T06:07:44;102959.05;;;-0.17;67.44
70521;BME280;58442;52.716;23.560;2023-02-28T06:09:45;102969.30;;;-0.14;67.42
70521;BME280;58442;52.716;23.560;2023-02-28T06:11:47;102964.58;;;-0.12;67.38
70521;BME280;58442;52.716;23.560;2023-02-28T06:13:59;102956.34;;;-0.11;67.35
70521;BME280;58442;52.716;23.560;2023-02-28T06:16:01;102959.59;;;-0.09;67.35
70521;BME280;58442;52.716;23.560;2023-02-28T06:18:03;102959.35;;;-0.07;67.33
70521;BME280;58442;52.716;23.560;2023-02-28T06:20:05;102954.63;;;-0.05;67.31
70521;BME280;58442;52.716;23.560;2023-02-28T06:22:13;102961.83;;;-0.06;67.31
70521;BME280;58442;52.716;23.560;2023-02-28T06:24:14;102961.44;;;-0.09;67.35
70521;BME280;58442;52.716;23.560;2023-02-28T06:26:16;102957.95;;;-0.10;67.34
70521;BME280;58442;52.716;23.560;2023-02-28T06:28:17;102964.58;;;-0.12;67.40
70521;BME280;58442;52.716;23.560;2023-02-28T06:30:28;102953.06;;;-0.13;67.42
70521;BME280;58442;52.716;23.560;2023-02-28T06:32:31;102962.09;;;-0.14;67.35
70521;BME280;58442;52.716;23.560;2023-02-28T06:34:33;102957.20;;;-0.17;67.46
70521;BME280;58442;52.716;23.560;2023-02-28T06:36:38;102950.23;;;-0.18;67.48
70521;BME280;58442;52.716;23.560;2023-02-28T06:38:43;102949.41;;;-0.18;67.45
70521;BME280;58442;52.716;23.560;2023-02-28T06:40:45;102957.42;;;-0.18;67.49
70521;BME280;58442;52.716;23.560;2023-02-28T06:42:51;102959.29;;;-0.19;67.50
70521;BME280;58442;52.716;23.560;2023-02-28T06:44:52;102949.84;;;-0.21;67.53
70521;BME280;58442;52.716;23.560;2023-02-28T06:46:58;102958.08;;;-0.23;67.61
70521;BME280;58442;52.716;23.560;2023-02-28T06:48:59;102959.35;;;-0.25;67.61
70521;BME280;58442;52.716;23.560;2023-02-28T06:51:02;102963.06;;;-0.26;67.69
70521;BME280;58442;52.716;23.560;2023-02-28T06:53:04;102962.24;;;-0.27;67.73
70521;BME280;58442;52.716;23.560;2023-02-28T06:55:13;102959.57;;;-0.27;67.78
70521;BME280;58442;52.716;23.560;2023-02-28T06:57:14;102963.06;;;-0.26;67.72
70521;BME280;58442;52.716;23.560;2023-02-28T06:59:16;102972.09;;;-0.28;67.76
70521;BME280;58442;52.716;23.560;2023-02-28T07:01:18;102969.21;;;-0.26;67.74
70521;BME280;58442;52.716;23.560;2023-02-28T07:03:28;102961.79;;;-0.24;67.78
70521;BME280;58442;52.716;23.560;2023-02-28T07:05:29;102970.20;;;-0.20;67.52
70521;BME280;58442;52.716;23.560;2023-02-28T07:07:31;102974.28;;;-0.18;67.71
70521;BME280;58442;52.716;23.560;2023-02-28T07:09:33;102978.14;;;-0.14;67.65
70521;BME280;58442;52.716;23.560;2023-02-28T07:11:43;102971.55;;;-0.11;67.61
70521;BME280;58442;52.716;23.560;2023-02-28T07:13:45;102980.54;;;-0.06;67.76
70521;BME280;58442;52.716;23.560;2023-02-28T07:15:55;102974.31;;;0.01;67.41
70521;BME280;58442;52.716;23.560;2023-02-28T07:17:56;102976.54;;;0.04;67.38
70521;BME280;58442;52.716;23.560;2023-02-28T07:19:58;102969.10;;;0.06;67.36
70521;BME280;58442;52.716;23.560;2023-02-28T07:22:00;102976.71;;;0.09;67.33
70521;BME280;58442;52.716;23.560;2023-02-28T07:24:03;102976.47;;;0.10;67.29
70521;BME280;58442;52.716;23.560;2023-02-28T07:26:06;102972.09;;;0.16;67.21
70521;BME280;58442;52.716;23.560;2023-02-28T07:28:14;102972.46;;;0.19;67.14
70521;BME280;58442;52.716;23.560;2023-02-28T07:30:16;102976.33;;;0.23;67.10
70521;BME280;58442;52.716;23.560;2023-02-28T07:32:17;102982.05;;;0.27;67.01
70521;BME280;58442;52.716;23.560;2023-02-28T07:34:20;102979.30;;;0.34;66.96
70521;BME280;58442;52.716;23.560;2023-02-28T07:36:28;102979.67;;;0.37;66.88
70521;BME280;58442;52.716;23.560;2023-02-28T07:38:30;102976.93;;;0.44;66.76
70521;BME280;58442;52.716;23.560;2023-02-28T07:40:31;102979.75;;;0.49;66.56
70521;BME280;58442;52.716;23.560;2023-02-28T07:42:33;102975.34;;;0.54;66.41
70521;BME280;58442;52.716;23.560;2023-02-28T07:44:43;102981.88;;;0.59;66.36
70521;BME280;58442;52.716;23.560;2023-02-28T07:46:45;102986.78;;;0.62;66.20
70521;BME280;58442;52.716;23.560;2023-02-28T07:48:46;102984.95;;;0.62;66.10
70521;BME280;58442;52.716;23.560;2023-02-28T07:50:54;102986.12;;;0.66;66.10
70521;BME280;58442;52.716;23.560;2023-02-28T07:52:59;102986.84;;;0.73;66.03
70521;BME280;58442;52.716;23.560;2023-02-28T07:55:00;102986.98;;;0.78;65.73
70521;BME280;58442;52.716;23.560;2023-02-28T07:57:02;102986.09;;;0.85;65.58
70521;BME280;58442;52.716;23.560;2023-02-28T07:59:03;102987.27;;;0.89;65.45
70521;BME280;58442;52.716;23.560;2023-02-28T08:01:14;102983.68;;;0.95;65.35
70521;BME280;58442;52.716;23.560;2023-02-28T08:03:16;102985.68;;;0.99;65.18
70521;BME280;58442;52.716;23.560;2023-02-28T08:05:18;102979.86;;;1.02;65.13
70521;BME280;58442;52.716;23.560;2023-02-28T08:07:19;102986.65;;;1.05;65.03
70521;BME280;58442;52.716;23.560;2023-02-28T08:09:28;102976.27;;;1.08;64.96
70521;BME280;58442;52.716;23.560;2023-02-28T08:11:31;102974.78;;;1.13;64.86
70521;BME280;58442;52.716;23.560;2023-02-28T08:13:32;102974.45;;;1.21;64.75
70521;BME280;58442;52.716;23.560;2023-02-28T08:15:33;102974.73;;;1.31;64.59
70521;BME280;58442;52.716;23.560;2023-02-28T08:17:44;102970.08;;;1.38;64.44
70521;BME280;58442;52.716;23.560;2023-02-28T08:19:45;102969.85;;;1.40;64.37
70521;BME280;58442;52.716;23.560;2023-02-28T08:21:47;102968.55;;;1.42;64.32
70521;BME280;58442;52.716;23.560;2023-02-28T08:25:54;102966.25;;;1.46;64.27
70521;BME280;58442;52.716;23.560;2023-02-28T08:27:55;102967.06;;;1.46;64.28
70521;BME280;58442;52.716;23.560;2023-02-28T08:29:57;102957.03;;;1.42;64.11
70521;BME280;58442;52.716;23.560;2023-02-28T08:32:02;102965.17;;;1.35;64.11
70521;BME280;58442;52.716;23.560;2023-02-28T08:34:12;102963.20;;;1.30;64.13
70521;BME280;58442;52.716;23.560;2023-02-28T08:36:14;102954.31;;;1.30;64.08
70521;BME280;58442;52.716;23.560;2023-02-28T08:38:16;102956.99;;;1.30;64.08
70521;BME280;58442;52.716;23.560;2023-02-28T08:40:18;102958.66;;;1.31;63.94
70521;BME280;58442;52.716;23.560;2023-02-28T08:42:20;102961.20;;;1.26;63.82
70521;BME280;58442;52.716;23.560;2023-02-28T08:44:21;102959.05;;;1.16;63.89
70521;BME280;58442;52.716;23.560;2023-02-28T08:46:23;102951.97;;;1.10;64.00
70521;BME280;58442;52.716;23.560;2023-02-28T08:48:35;102954.04;;;1.08;63.94
70521;BME280;58442;52.716;23.560;2023-02-28T08:50:38;102955.66;;;1.09;63.98
70521;BME280;58442;52.716;23.560;2023-02-28T08:52:42;102960.35;;;1.14;63.96
70521;BME280;58442;52.716;23.560;2023-02-28T08:54:44;102958.72;;;1.13;63.94
70521;BME280;58442;52.716;23.560;2023-02-28T08:56:48;102962.44;;;1.12;63.90
70521;BME280;58442;52.716;23.560;2023-02-28T08:58:50;102958.72;;;1.13;63.85
70521;BME280;58442;52.716;23.560;2023-02-28T09:00:52;102965.84;;;1.19;63.83
70521;BME280;58442;52.716;23.560;2023-02-28T09:02:53;102962.26;;;1.25;63.74
70521;BME280;58442;52.716;23.560;2023-02-28T09:05:04;102958.85;;;1.29;63.61
70521;BME280;58442;52.716;23.560;2023-02-28T09:07:05;102953.41;;;1.36;63.41
70521;BME280;58442;52.716;23.560;2023-02-28T09:09:06;102945.97;;;1.38;63.35
70521;BME280;58442;52.716;23.560;2023-02-28T09:11:10;102945.74;;;1.40;63.40
70521;BME280;58442;52.716;23.560;2023-02-28T09:13:18;102949.70;;;1.49;63.34
70521;BME280;58442;52.716;23.560;2023-02-28T09:15:20;102953.89;;;1.56;63.19
70521;BME280;58442;52.716;23.560;2023-02-28T09:17:21;102950.87;;;1.64;63.14
70521;BME280;58442;52.716;23.560;2023-02-28T09:19:22;102954.27;;;1.72;63.11
70521;BME280;58442;52.716;23.560;2023-02-28T09:21:33;102958.23;;;1.81;62.97
70521;BME280;58442;52.716;23.560;2023-02-28T09:23:35;102954.49;;;1.82;62.84
70521;BME280;58442;52.716;23.560;2023-02-28T09:25:47;102955.19;;;1.89;62.73
70521;BME280;58442;52.716;23.560;2023-02-28T09:27:49;102954.14;;;1.90;62.72
70521;BME280;58442;52.716;23.560;2023-02-28T09:29:50;102955.65;;;1.98;62.60
70521;BME280;58442;52.716;23.560;2023-02-28T09:31:52;102949.11;;;2.05;62.32
70521;BME280;58442;52.716;23.560;2023-02-28T09:33:54;102955.64;;;2.09;62.21
70521;BME280;58442;52.716;23.560;2023-02-28T09:36:00;102952.27;;;2.14;62.20
70521;BME280;58442;52.716;23.560;2023-02-28T09:38:04;102947.79;;;2.19;62.13
70521;BME280;58442;52.716;23.560;2023-02-28T09:40:09;102948.73;;;2.25;62.10
70521;BME280;58442;52.716;23.560;2023-02-28T09:42:21;102946.96;;;2.31;61.95
70521;BME280;58442;52.716;23.560;2023-02-28T09:44:30;102940.66;;;2.37;61.84
70521;BME280;58442;52.716;23.560;2023-02-28T09:46:35;102942.64;;;2.41;61.76
70521;BME280;58442;52.716;23.560;2023-02-28T09:48:44;102935.98;;;2.44;61.78
70521;BME280;58442;52.716;23.560;2023-02-28T09:51:03;102936.09;;;2.49;61.65
70521;BME280;58442;52.716;23.560;2023-02-28T09:53:05;102936.65;;;2.51;61.61
70521;BME280;58442;52.716;23.560;2023-02-28T09:55:20;102933.27;;;2.56;61.67
70521;BME280;58442;52.716;23.560;2023-02-28T09:57:32;102937.07;;;2.60;61.60
70521;BME280;58442;52.716;23.560;2023-02-28T09:59:47;102931.49;;;2.61;61.52
70521;BME280;58442;52.716;23.560;2023-02-28T10:02:00;102930.43;;;2.62;61.48
70521;BME280;58442;52.716;23.560;2023-02-28T10:06:35;102927.82;;;2.67;61.44
70521;BME280;58442;52.716;23.560;2023-02-28T10:10:58;102922.24;;;2.69;61.36
70521;BME280;58442;52.716;23.560;2023-02-28T10:13:05;102924.98;;;2.74;61.33
70521;BME280;58442;52.716;23.560;2023-02-28T10:15:15;102925.34;;;2.78;61.26
70521;BME280;58442;52.716;23.560;2023-02-28T10:17:23;102923.23;;;2.80;61.17
70521;BME280;58442;52.716;23.560;2023-02-28T10:21:42;102921.70;;;2.84;61.10
70521;BME280;58442;52.716;23.560;2023-02-28T10:23:48;102924.38;;;2.84;61.02
70521;BME280;58442;52.716;23.560;2023-02-28T10:26:00;102917.40;;;2.83;60.94
70521;BME280;58442;52.716;23.560;2023-02-28T10:28:11;102916.58;;;2.82;60.94
70521;BME280;58442;52.716;23.560;2023-02-28T10:30:13;102915.16;;;2.80;60.87
70521;BME280;58442;52.716;23.560;2023-02-28T10:34:29;102908.98;;;2.79;60.99
70521;BME280;58442;52.716;23.560;2023-02-28T10:36:31;102909.79;;;2.80;61.08
70521;BME280;58442;52.716;23.560;2023-02-28T10:38:40;102910.40;;;2.82;60.99
70521;BME280;58442;52.716;23.560;2023-02-28T10:40:42;102904.52;;;2.85;60.98
70521;BME280;58442;52.716;23.560;2023-02-28T10:47:16;102908.84;;;2.86;60.77
70521;BME280;58442;52.716;23.560;2023-02-28T10:49:23;102906.66;;;2.83;60.80
70521;BME280;58442;52.716;23.560;2023-02-28T10:51:25;102906.05;;;2.81;60.83
70521;BME280;58442;52.716;23.560;2023-02-28T10:53:35;102913.65;;;2.84;60.89
70521;BME280;58442;52.716;23.560;2023-02-28T10:55:38;102913.15;;;2.87;60.77
70521;BME280;58442;52.716;23.560;2023-02-28T10:57:40;102905.90;;;2.87;60.71
70521;BME280;58442;52.716;23.560;2023-02-28T10:59:41;102909.64;;;2.86;60.66
70521;BME280;58442;52.716;23.560;2023-02-28T11:01:46;102905.34;;;2.85;60.70
70521;BME280;58442;52.716;23.560;2023-02-28T11:03:54;102904.52;;;2.85;60.72
70521;BME280;58442;52.716;23.560;2023-02-28T11:05:55;102907.21;;;2.85;60.77
70521;BME280;58442;52.716;23.560;2023-02-28T11:10:18;102897.70;;;2.94;60.70
70521;BME280;58442;52.716;23.560;2023-02-28T11:12:31;102900.48;;;2.99;60.62
70521;BME280;58442;52.716;23.560;2023-02-28T11:14:46;102886.80;;;3.00;60.54
70521;BME280;58442;52.716;23.560;2023-02-28T11:16:46;102889.98;;;2.97;60.48
70521;BME280;58442;52.716;23.560;2023-02-28T11:18:57;102883.80;;;2.97;60.54
70521;BME280;58442;52.716;23.560;2023-02-28T11:21:02;102879.55;;;3.01;60.51
70521;BME280;58442;52.716;23.560;2023-02-28T11:23:04;102870.46;;;3.02;60.38
70521;BME280;58442;52.716;23.560;2023-02-28T11:25:10;102867.77;;;3.02;60.35
70521;BME280;58442;52.716;23.560;2023-02-28T11:29:33;102868.08;;;3.06;60.45
70521;BME280;58442;52.716;23.560;2023-02-28T11:31:39;102864.33;;;3.07;60.42
70521;BME280;58442;52.716;23.560;2023-02-28T11:33:49;102864.50;;;3.07;60.41
70521;BME280;58442;52.716;23.560;2023-02-28T11:35:53;102862.45;;;3.07;60.40
70521;BME280;58442;52.716;23.560;2023-02-28T11:37:57;102864.69;;;3.10;60.44
70521;BME280;58442;52.716;23.560;2023-02-28T11:40:16;102847.80;;;3.15;60.34
70521;BME280;58442;52.716;23.560;2023-02-28T11:42:31;102857.01;;;3.19;60.20
70521;BME280;58442;52.716;23.560;2023-02-28T11:46:52;102854.88;;;3.21;60.23